createdAt,value
2022-09-12T00:01:41.303Z,12.10
2022-09-12T00:04:13.019Z,12.00
2022-09-12T00:06:45.127Z,12.00
2022-09-12T00:09:16.825Z,12.00
2022-09-12T00:11:48.714Z,12.00
2022-09-12T00:14:20.452Z,12.00
2022-09-12T00:16:52.410Z,12.00
2022-09-12T00:19:24.438Z,12.00
2022-09-12T00:21:56.653Z,12.00
2022-09-12T00:24:28.520Z,12.00
2022-09-12T00:27:00.169Z,12.10
2022-09-12T00:29:31.908Z,12.00
2022-09-12T00:32:03.667Z,12.00
2022-09-12T00:34:36.356Z,12.10
2022-09-12T00:37:08.142Z,12.10
2022-09-12T00:39:39.916Z,12.10
2022-09-12T00:42:12.779Z,12.10
2022-09-12T00:44:47.894Z,12.00
2022-09-12T00:47:24.657Z,12.00
2022-09-12T00:49:57.338Z,12.00
2022-09-12T00:52:40.083Z,12.00
2022-09-12T00:55:23.566Z,12.00
2022-09-12T00:58:08.950Z,12.00
2022-09-12T01:00:40.877Z,12.00
2022-09-12T01:03:16.378Z,12.00
2022-09-12T01:06:01.306Z,12.00
2022-09-12T01:08:37.277Z,12.00
2022-09-12T01:11:11.251Z,12.00
2022-09-12T01:13:45.075Z,11.90
2022-09-12T01:16:17.103Z,11.90
2022-09-12T01:19:05.756Z,11.80
2022-09-12T01:22:04.653Z,11.80
2022-09-12T01:25:03.588Z,11.80
2022-09-12T01:27:41.167Z,11.70
2022-09-12T01:30:18.819Z,11.70
2022-09-12T01:33:03.329Z,11.70
2022-09-12T01:36:08.895Z,11.70
2022-09-12T01:38:48.703Z,11.70
2022-09-12T01:41:35.718Z,11.70
2022-09-12T01:44:33.518Z,11.70
2022-09-12T01:47:14.046Z,11.60
2022-09-12T01:50:07.048Z,11.60
2022-09-12T01:52:49.446Z,11.60
2022-09-12T01:55:27.699Z,11.50
2022-09-12T01:58:34.391Z,11.50
2022-09-12T02:01:33.859Z,11.50
2022-09-12T02:04:11.330Z,11.50
2022-09-12T02:06:54.535Z,11.60
2022-09-12T02:09:29.171Z,11.50
2022-09-12T02:12:01.904Z,11.50
2022-09-12T02:14:48.626Z,11.50
2022-09-12T02:17:23.202Z,11.50
2022-09-12T02:20:01.055Z,11.50
2022-09-12T02:22:36.745Z,11.60
2022-09-12T02:25:10.459Z,11.60
2022-09-12T02:27:47.074Z,11.50
2022-09-12T02:30:19.663Z,11.50
2022-09-12T02:32:54.102Z,11.50
2022-09-12T02:35:40.514Z,11.50
2022-09-12T02:38:20.347Z,11.40
2022-09-12T02:40:52.354Z,11.40
2022-09-12T02:43:24.276Z,11.30
2022-09-12T02:45:56.079Z,11.30
2022-09-12T02:48:32.008Z,11.20
2022-09-12T02:51:04.127Z,11.20
2022-09-12T02:53:36.806Z,11.10
2022-09-12T02:56:13.171Z,11.10
2022-09-12T02:58:45.664Z,11.10
2022-09-12T03:01:37.354Z,11.10
2022-09-12T03:04:36.172Z,11.10
2022-09-12T03:07:37.629Z,11.10
2022-09-12T03:10:15.470Z,11.10
2022-09-12T03:13:14.516Z,11.00
2022-09-12T03:15:52.685Z,11.10
2022-09-12T03:18:47.226Z,11.10
2022-09-12T03:21:47.970Z,11.10
2022-09-12T03:24:38.136Z,11.10
2022-09-12T03:27:18.667Z,11.10
2022-09-12T03:29:51.382Z,11.10
2022-09-12T03:32:42.316Z,11.10
2022-09-12T03:35:17.942Z,11.10
2022-09-12T03:37:52.213Z,11.20
2022-09-12T03:40:23.910Z,11.10
2022-09-12T03:42:55.586Z,11.10
2022-09-12T03:45:27.297Z,11.10
2022-09-12T03:47:59.535Z,11.10
2022-09-12T03:50:31.198Z,11.10
2022-09-12T03:53:03.752Z,11.10
2022-09-12T03:55:36.190Z,11.10
2022-09-12T03:58:07.861Z,11.00
2022-09-12T04:00:40.094Z,11.00
2022-09-12T04:03:11.816Z,10.90
2022-09-12T04:05:43.547Z,10.90
2022-09-12T04:08:15.334Z,10.90
2022-09-12T04:10:47.051Z,10.90
2022-09-12T04:13:18.883Z,10.90
2022-09-12T04:15:58.411Z,10.90
2022-09-12T04:18:30.998Z,10.90
2022-09-12T04:21:07.221Z,10.90
2022-09-12T04:23:39.005Z,10.80
2022-09-12T04:26:11.719Z,10.80
2022-09-12T04:28:44.374Z,10.90
2022-09-12T04:31:18.103Z,10.90
2022-09-12T04:34:00.723Z,10.90
2022-09-12T04:36:34.256Z,10.90
2022-09-12T04:39:06.171Z,10.90
2022-09-12T04:41:39.812Z,10.90
2022-09-12T04:44:14.030Z,10.90
2022-09-12T04:46:47.202Z,10.90
2022-09-12T04:49:19.441Z,11.00
2022-09-12T04:51:53.449Z,11.00
2022-09-12T04:54:25.604Z,11.00
2022-09-12T04:56:57.432Z,11.00
2022-09-12T04:59:29.120Z,10.90
2022-09-12T05:02:00.932Z,10.90
2022-09-12T05:04:32.706Z,10.90
2022-09-12T05:07:05.759Z,10.90
2022-09-12T05:09:37.413Z,10.90
2022-09-12T05:12:09.407Z,10.90
2022-09-12T05:14:41.174Z,10.90
2022-09-12T05:17:12.933Z,10.90
2022-09-12T05:19:44.607Z,10.90
2022-09-12T05:22:16.298Z,10.90
2022-09-12T05:24:54.032Z,10.90
2022-09-12T05:27:25.734Z,10.90
2022-09-12T05:29:57.383Z,11.00
2022-09-12T05:32:32.278Z,11.10
2022-09-12T05:35:04.273Z,11.10
2022-09-12T05:37:35.944Z,11.10
2022-09-12T05:40:08.584Z,11.10
2022-09-12T05:42:40.267Z,11.10
2022-09-12T05:45:11.982Z,11.10
2022-09-12T05:47:46.835Z,11.10
2022-09-12T05:50:18.510Z,11.10
2022-09-12T05:52:50.532Z,11.10
2022-09-12T05:55:23.089Z,11.10
2022-09-12T05:57:54.725Z,11.20
2022-09-12T06:00:28.402Z,11.20
2022-09-12T06:03:03.318Z,11.20
2022-09-12T06:05:34.966Z,11.30
2022-09-12T06:08:07.029Z,11.30
2022-09-12T06:10:38.707Z,11.40
2022-09-12T06:13:10.354Z,11.40
2022-09-12T06:15:42.072Z,11.40
2022-09-12T06:18:13.805Z,11.50
2022-09-12T06:20:45.477Z,11.50
2022-09-12T06:23:17.125Z,11.50
2022-09-12T06:25:50.087Z,11.60
2022-09-12T06:28:21.822Z,11.70
2022-09-12T06:30:53.661Z,11.70
2022-09-12T06:33:25.461Z,11.80
2022-09-12T06:36:03.589Z,11.90
2022-09-12T06:38:35.672Z,12.10
2022-09-12T06:41:10.629Z,12.20
2022-09-12T06:43:42.935Z,12.30
2022-09-12T06:46:14.704Z,12.40
2022-09-12T06:48:46.470Z,12.50
2022-09-12T06:51:20.106Z,12.70
2022-09-12T06:53:52.264Z,12.70
2022-09-12T06:56:26.619Z,12.90
2022-09-12T06:58:59.351Z,13.00
2022-09-12T07:01:32.432Z,13.00
2022-09-12T07:04:04.995Z,13.10
2022-09-12T07:06:39.783Z,13.20
2022-09-12T07:09:13.964Z,13.40
2022-09-12T07:11:46.639Z,13.60
2022-09-12T07:14:18.336Z,13.80
2022-09-12T07:16:50.061Z,13.90
2022-09-12T07:19:22.395Z,13.90
2022-09-12T07:21:58.050Z,14.10
2022-09-12T07:24:30.386Z,14.20
2022-09-12T07:27:02.046Z,14.20
2022-09-12T07:29:37.107Z,14.20
2022-09-12T07:32:12.061Z,14.40
2022-09-12T07:34:45.699Z,14.50
2022-09-12T07:37:17.815Z,14.60
2022-09-12T07:39:49.695Z,14.70
2022-09-12T07:42:22.487Z,14.80
2022-09-12T07:44:54.269Z,14.90
2022-09-12T07:47:25.998Z,15.00
2022-09-12T07:49:58.516Z,15.10
2022-09-12T07:52:31.017Z,15.20
2022-09-12T07:55:03.083Z,15.30
2022-09-12T07:57:34.954Z,15.40
2022-09-12T08:00:08.837Z,15.50
2022-09-12T08:02:40.590Z,15.60
2022-09-12T08:05:12.663Z,15.70
2022-09-12T08:07:44.434Z,15.80
2022-09-12T08:10:16.202Z,15.90
2022-09-12T08:12:47.847Z,16.10
2022-09-12T08:15:20.267Z,16.20
2022-09-12T08:17:51.906Z,16.30
2022-09-12T08:20:28.125Z,16.30
2022-09-12T08:23:00.151Z,16.40
2022-09-12T08:25:31.859Z,16.50
2022-09-12T08:28:03.582Z,16.50
2022-09-12T08:30:35.526Z,16.60
2022-09-12T08:33:07.903Z,16.70
2022-09-12T08:35:39.634Z,16.70
2022-09-12T08:38:11.398Z,16.80
2022-09-12T08:40:55.710Z,16.90
2022-09-12T08:43:40.726Z,17.10
2022-09-12T08:46:21.659Z,17.20
2022-09-12T08:48:55.445Z,17.30
2022-09-12T08:51:29.366Z,17.40
2022-09-12T08:54:02.350Z,17.40
2022-09-12T08:56:37.542Z,17.50
2022-09-12T08:59:09.285Z,17.60
2022-09-12T09:01:43.779Z,17.70
2022-09-12T09:04:15.474Z,17.80
2022-09-12T09:06:49.883Z,17.90
2022-09-12T09:09:33.562Z,18.10
2022-09-12T09:12:20.934Z,18.20
2022-09-12T09:15:24.743Z,18.30
2022-09-12T09:18:00.494Z,18.70
2022-09-12T09:20:56.140Z,20.00
2022-09-12T09:23:36.958Z,21.70
2022-09-12T09:26:55.995Z,23.10
2022-09-12T09:29:36.911Z,24.40
2022-09-12T09:32:18.477Z,25.50
2022-09-12T09:34:50.138Z,26.50
2022-09-12T09:37:41.422Z,27.40
2022-09-12T09:40:16.170Z,27.90
2022-09-12T09:43:19.686Z,28.50
2022-09-12T09:45:52.820Z,29.20
2022-09-12T09:48:30.426Z,29.30
2022-09-12T09:51:05.361Z,29.00
2022-09-12T09:53:51.673Z,29.10
2022-09-12T09:56:42.489Z,28.70
2022-09-12T09:59:27.679Z,29.10
2022-09-12T10:02:03.635Z,29.40
2022-09-12T10:04:41.579Z,29.30
2022-09-12T10:07:21.729Z,29.50
2022-09-12T10:10:17.019Z,29.90
2022-09-12T10:12:49.395Z,30.40
2022-09-12T10:15:26.548Z,30.70
2022-09-12T10:17:59.919Z,30.60
2022-09-12T10:20:37.551Z,30.70
2022-09-12T10:23:29.376Z,31.20
2022-09-12T10:26:05.542Z,31.40
2022-09-12T10:28:41.404Z,31.00
2022-09-12T10:31:28.850Z,31.30
2022-09-12T10:34:00.910Z,31.50
2022-09-12T10:36:38.483Z,31.50
2022-09-12T10:39:19.124Z,31.60
2022-09-12T10:41:50.828Z,31.10
2022-09-12T10:44:29.627Z,31.20
2022-09-12T10:47:22.023Z,31.10
2022-09-12T10:49:53.930Z,31.30
2022-09-12T10:52:25.845Z,31.70
2022-09-12T10:54:57.765Z,31.50
2022-09-12T10:57:47.923Z,31.30
2022-09-12T11:00:27.526Z,31.00
2022-09-12T11:03:16.049Z,30.80
2022-09-12T11:05:58.211Z,31.10
2022-09-12T11:08:55.551Z,30.80
2022-09-12T11:11:50.116Z,30.60
2022-09-12T11:14:28.443Z,30.90
2022-09-12T11:17:21.107Z,30.90
2022-09-12T11:19:56.144Z,31.40
2022-09-12T11:23:09.700Z,30.80
2022-09-12T11:25:44.410Z,30.00
2022-09-12T11:28:27.899Z,28.80
2022-09-12T11:31:31.783Z,27.80
2022-09-12T11:34:09.564Z,27.00
2022-09-12T11:37:19.888Z,26.30
2022-09-12T11:39:55.685Z,25.60
2022-09-12T11:42:33.233Z,25.20
2022-09-12T11:45:28.952Z,25.00
2022-09-12T11:48:07.425Z,24.60
2022-09-12T11:50:39.141Z,24.40
2022-09-12T11:53:28.931Z,24.30
2022-09-12T11:56:12.498Z,24.30
2022-09-12T11:58:51.611Z,24.20
2022-09-12T12:01:42.864Z,24.00
2022-09-12T12:04:21.148Z,24.00
2022-09-12T12:07:01.636Z,24.00
2022-09-12T12:09:47.413Z,23.90
2022-09-12T12:12:25.091Z,23.90
2022-09-12T12:14:57.544Z,23.70
2022-09-12T12:17:29.706Z,23.70
2022-09-12T12:20:08.219Z,23.70
2022-09-12T12:22:52.597Z,23.50
2022-09-12T12:25:38.583Z,23.40
2022-09-12T12:28:10.354Z,23.30
2022-09-12T12:31:00.075Z,23.30
2022-09-12T12:33:31.721Z,23.10
2022-09-12T12:36:28.347Z,23.20
2022-09-12T12:39:20.037Z,23.20
2022-09-12T12:41:51.769Z,23.40
2022-09-12T12:44:45.230Z,23.50
2022-09-12T12:47:19.751Z,23.60
2022-09-12T12:50:05.895Z,23.60
2022-09-12T12:53:09.775Z,23.40
2022-09-12T12:55:44.498Z,23.40
2022-09-12T12:58:39.482Z,23.30
2022-09-12T13:01:20.584Z,23.20
2022-09-12T13:04:03.755Z,23.30
2022-09-12T13:06:38.253Z,23.30
2022-09-12T13:09:45.329Z,23.30
2022-09-12T13:12:23.702Z,23.50
2022-09-12T13:15:03.366Z,23.50
2022-09-12T13:17:38.060Z,23.50
2022-09-12T13:20:31.634Z,23.50
2022-09-12T13:23:03.679Z,23.50
2022-09-12T13:25:37.036Z,23.30
2022-09-12T13:28:11.915Z,23.50
2022-09-12T13:31:03.798Z,23.50
2022-09-12T13:33:45.204Z,23.70
2022-09-12T13:36:25.883Z,23.70
2022-09-12T13:39:47.706Z,23.70
2022-09-12T13:42:41.035Z,23.60
2022-09-12T13:45:19.631Z,23.70
2022-09-12T13:48:18.109Z,23.50
2022-09-12T13:50:54.507Z,23.30
2022-09-12T13:53:32.348Z,23.30
2022-09-12T13:56:04.068Z,23.40
2022-09-12T13:58:35.940Z,23.50
2022-09-12T14:01:10.474Z,23.50
2022-09-12T14:04:12.912Z,23.60
2022-09-12T14:06:50.214Z,23.50
2022-09-12T14:09:36.280Z,23.20
2022-09-12T14:12:32.363Z,23.20
2022-09-12T14:15:04.575Z,23.20
2022-09-12T14:17:39.651Z,23.00
2022-09-12T14:20:18.516Z,22.80
2022-09-12T14:22:53.495Z,22.80
2022-09-12T14:25:29.623Z,22.70
2022-09-12T14:28:01.584Z,22.70
2022-09-12T14:30:36.482Z,22.70
2022-09-12T14:33:11.233Z,22.80
2022-09-12T14:35:47.774Z,22.80
2022-09-12T14:38:29.771Z,22.90
2022-09-12T14:41:06.208Z,22.90
2022-09-12T14:43:45.731Z,22.90
2022-09-12T14:46:37.275Z,22.90
2022-09-12T14:49:18.275Z,22.90
2022-09-12T14:51:55.545Z,23.00
2022-09-12T14:54:30.416Z,22.90
2022-09-12T14:57:17.779Z,22.90
2022-09-12T14:59:50.941Z,22.80
2022-09-12T15:02:26.982Z,22.70
2022-09-12T15:05:04.819Z,22.60
2022-09-12T15:08:00.360Z,22.50
2022-09-12T15:10:37.688Z,22.30
2022-09-12T15:13:09.363Z,22.30
2022-09-12T15:15:44.300Z,22.20
2022-09-12T15:18:16.579Z,22.10
2022-09-12T15:20:52.915Z,22.20
2022-09-12T15:23:42.864Z,22.40
2022-09-12T15:26:17.747Z,22.40
2022-09-12T15:28:50.755Z,22.40
2022-09-12T15:31:28.606Z,22.30
2022-09-12T15:34:02.246Z,22.30
2022-09-12T15:36:33.944Z,22.40
2022-09-12T15:39:05.881Z,22.50
2022-09-12T15:41:38.730Z,22.60
2022-09-12T15:44:12.877Z,22.60
2022-09-12T15:46:44.980Z,22.50
2022-09-12T15:49:17.014Z,22.50
2022-09-12T15:51:48.668Z,22.50
2022-09-12T15:54:21.046Z,22.50
2022-09-12T15:56:52.915Z,22.40
2022-09-12T15:59:25.003Z,22.30
2022-09-12T16:01:56.742Z,22.30
2022-09-12T16:04:30.412Z,22.30
2022-09-12T16:07:02.193Z,22.20
2022-09-12T16:09:34.403Z,22.10
2022-09-12T16:12:06.490Z,22.00
2022-09-12T16:14:38.155Z,22.00
2022-09-12T16:17:13.642Z,21.90
2022-09-12T16:19:45.298Z,21.90
2022-09-12T16:22:16.953Z,21.90
2022-09-12T16:24:48.597Z,21.90
2022-09-12T16:27:20.335Z,21.80
2022-09-12T16:29:52.250Z,21.70
2022-09-12T16:32:24.148Z,21.60
2022-09-12T16:34:55.799Z,21.50
2022-09-12T16:37:28.046Z,21.40
2022-09-12T16:39:59.935Z,21.30
2022-09-12T16:42:31.942Z,21.00
2022-09-12T16:45:03.954Z,20.70
2022-09-12T16:47:35.695Z,20.50
2022-09-12T16:50:07.996Z,20.30
2022-09-12T16:52:39.738Z,20.10
2022-09-12T16:55:11.408Z,19.90
2022-09-12T16:57:43.136Z,19.70
2022-09-12T17:00:15.305Z,19.60
2022-09-12T17:02:47.581Z,19.40
2022-09-12T17:05:19.410Z,19.30
2022-09-12T17:07:51.993Z,19.20
2022-09-12T17:10:23.724Z,19.10
2022-09-12T17:12:55.462Z,19.00
2022-09-12T17:15:27.259Z,18.90
2022-09-12T17:17:59.004Z,18.80
2022-09-12T17:20:30.715Z,18.70
2022-09-12T17:23:04.502Z,18.60
2022-09-12T17:25:39.602Z,18.50
2022-09-12T17:28:11.335Z,18.40
2022-09-12T17:30:43.256Z,18.30
2022-09-12T17:33:15.414Z,18.20
2022-09-12T17:35:47.098Z,18.10
2022-09-12T17:38:24.558Z,18.00
2022-09-12T17:40:59.946Z,18.00
2022-09-12T17:43:32.435Z,17.90
2022-09-12T17:46:05.206Z,17.80
2022-09-12T17:48:38.338Z,17.70
2022-09-12T17:51:11.937Z,17.60
2022-09-12T17:53:44.104Z,17.60
2022-09-12T17:56:15.851Z,17.50
2022-09-12T17:58:48.732Z,17.40
2022-09-12T18:01:38.948Z,17.40
2022-09-12T18:04:10.906Z,17.30
2022-09-12T18:06:47.933Z,17.20
2022-09-12T18:09:25.132Z,17.20
2022-09-12T18:11:57.277Z,17.10
2022-09-12T18:14:29.076Z,17.00
2022-09-12T18:17:01.358Z,17.00
2022-09-12T18:19:33.216Z,16.90
2022-09-12T18:22:09.473Z,16.80
2022-09-12T18:24:41.355Z,16.80
2022-09-12T18:27:13.114Z,16.70
2022-09-12T18:29:51.945Z,16.70
2022-09-12T18:32:36.279Z,16.60
2022-09-12T18:35:08.586Z,16.60
2022-09-12T18:37:43.993Z,16.50
2022-09-12T18:40:15.770Z,16.50
2022-09-12T18:42:47.458Z,16.40
2022-09-12T18:45:19.103Z,16.40
2022-09-12T18:47:51.035Z,16.30
2022-09-12T18:50:24.296Z,16.30
2022-09-12T18:52:59.604Z,16.30
2022-09-12T18:55:33.340Z,16.20
2022-09-12T18:58:05.028Z,16.20
2022-09-12T19:00:37.072Z,16.10
2022-09-12T19:03:08.731Z,16.10
2022-09-12T19:05:40.399Z,16.10
2022-09-12T19:08:12.048Z,16.00
2022-09-12T19:10:44.163Z,16.00
2022-09-12T19:13:17.446Z,15.90
2022-09-12T19:15:49.276Z,15.90
2022-09-12T19:18:21.016Z,15.90
2022-09-12T19:20:52.951Z,15.80
2022-09-12T19:23:24.768Z,15.80
2022-09-12T19:25:58.243Z,15.70
2022-09-12T19:28:30.868Z,15.70
2022-09-12T19:31:11.284Z,15.70
2022-09-12T19:33:44.597Z,15.60
2022-09-12T19:36:41.309Z,15.60
2022-09-12T19:39:10.374Z,15.50
2022-09-12T19:41:42.543Z,15.50
2022-09-12T19:44:14.651Z,15.50
2022-09-12T19:46:46.369Z,15.50
2022-09-12T19:49:18.168Z,15.50
2022-09-12T19:51:49.863Z,15.40
2022-09-12T19:54:21.531Z,15.40
2022-09-12T19:56:53.334Z,15.40
2022-09-12T19:59:25.062Z,15.30
2022-09-12T20:01:56.894Z,15.30
2022-09-12T20:04:29.706Z,15.30
2022-09-12T20:07:01.384Z,15.30
2022-09-12T20:09:33.139Z,15.20
2022-09-12T20:12:05.438Z,15.20
2022-09-12T20:14:37.188Z,15.20
2022-09-12T20:17:08.971Z,15.20
2022-09-12T20:19:40.764Z,15.10
2022-09-12T20:22:12.421Z,15.10
2022-09-12T20:24:44.303Z,15.10
2022-09-12T20:27:16.546Z,15.00
2022-09-12T20:29:48.243Z,15.00
2022-09-12T20:32:20.507Z,15.00
2022-09-12T20:34:52.187Z,15.00
2022-09-12T20:37:24.066Z,14.90
2022-09-12T20:39:55.837Z,14.90
2022-09-12T20:42:29.368Z,14.90
2022-09-12T20:45:01.216Z,14.90
2022-09-12T20:47:32.943Z,14.80
2022-09-12T20:50:04.982Z,14.80
2022-09-12T20:52:36.851Z,14.80
2022-09-12T20:55:09.199Z,14.80
2022-09-12T20:57:40.950Z,14.70
2022-09-12T21:00:13.253Z,14.70
2022-09-12T21:02:45.255Z,14.70
2022-09-12T21:05:17.238Z,14.70
2022-09-12T21:07:49.010Z,14.60
2022-09-12T21:10:20.731Z,14.60
2022-09-12T21:12:52.744Z,14.60
2022-09-12T21:15:24.742Z,14.50
2022-09-12T21:17:56.557Z,14.50
2022-09-12T21:20:28.250Z,14.50
2022-09-12T21:23:00.340Z,14.50
2022-09-12T21:25:32.123Z,14.50
2022-09-12T21:28:03.783Z,14.50
2022-09-12T21:30:35.472Z,14.50
2022-09-12T21:33:07.197Z,14.50
2022-09-12T21:35:38.987Z,14.50
2022-09-12T21:38:11.104Z,14.50
2022-09-12T21:40:43.019Z,14.40
2022-09-12T21:43:15.310Z,14.40
2022-09-12T21:45:46.999Z,14.40
2022-09-12T21:48:18.642Z,14.30
2022-09-12T21:50:50.992Z,14.30
2022-09-12T21:53:23.123Z,14.20
2022-09-12T21:55:55.079Z,14.20
2022-09-12T21:58:26.743Z,14.20
2022-09-12T22:01:00.280Z,14.20
2022-09-12T22:03:32.148Z,14.10
2022-09-12T22:06:05.966Z,14.10
2022-09-12T22:08:38.825Z,14.10
2022-09-12T22:11:10.731Z,14.00
2022-09-12T22:13:45.204Z,14.00
2022-09-12T22:16:17.756Z,14.00
2022-09-12T22:18:50.733Z,13.90
2022-09-12T22:21:24.298Z,13.90
2022-09-12T22:24:14.576Z,13.90
2022-09-12T22:26:46.610Z,13.90
2022-09-12T22:29:18.556Z,13.90
2022-09-12T22:31:50.370Z,13.90
2022-09-12T22:34:22.110Z,13.80
2022-09-12T22:36:53.786Z,13.80
2022-09-12T22:39:26.023Z,13.80
2022-09-12T22:41:58.116Z,13.80
2022-09-12T22:44:30.300Z,13.80
2022-09-12T22:47:02.050Z,13.80
2022-09-12T22:49:33.979Z,13.80
2022-09-12T22:52:05.728Z,13.80
2022-09-12T22:54:37.691Z,13.80
2022-09-12T22:57:09.533Z,13.80
2022-09-12T22:59:41.296Z,13.80
2022-09-12T23:02:13.012Z,13.80
2022-09-12T23:04:46.626Z,13.70
2022-09-12T23:07:18.539Z,13.70
2022-09-12T23:09:50.206Z,13.70
2022-09-12T23:12:21.862Z,13.70
2022-09-12T23:14:53.725Z,13.70
2022-09-12T23:17:25.472Z,13.70
2022-09-12T23:19:57.198Z,13.70
2022-09-12T23:22:28.900Z,13.70
2022-09-12T23:25:00.555Z,13.70
2022-09-12T23:27:32.205Z,13.60
2022-09-12T23:30:04.259Z,13.60
2022-09-12T23:32:36.643Z,13.60
2022-09-12T23:35:08.364Z,13.60
2022-09-12T23:37:40.146Z,13.60
2022-09-12T23:40:12.016Z,13.60
2022-09-12T23:42:43.797Z,13.60
2022-09-12T23:45:15.580Z,13.60
2022-09-12T23:47:47.226Z,13.60
2022-09-12T23:50:18.891Z,13.50
2022-09-12T23:52:50.542Z,13.50
2022-09-12T23:55:22.271Z,13.50
2022-09-12T23:57:53.963Z,13.50
